Time;durP1;ratioP1;P1;durP2;ratioP2;P2;SDS_P1;SDS_P2;PMS_P1;PMS_P2;Temp;Humidity;BMP_temperature;BMP_pressure;BME280_temperature;BME280_humidity;BME280_pressure;Samples;Min_cycle;Max_cycle;Signal;HPM_P1;HPM_P2
2022/02/10 00:35:22;;;;;;;416.65;47.75;;;8.10;99.90;;;;;;4999501;28;20094;-86
2022/02/10 00:37:58;;;;;;;448.65;46.20;;;8.10;99.90;;;;;;4999498;28;20036;-87
2022/02/10 00:40:35;;;;;;;312.50;41.65;;;8.10;99.90;;;;;;5011127;28;20041;-87
2022/02/10 00:43:03;;;;;;;412.70;45.58;;;8.10;99.90;;;;;;4994261;28;20689;-88
2022/02/10 00:45:32;;;;;;;253.25;37.58;;;8.10;99.90;;;;;;5002512;28;20037;-88
2022/02/10 00:48:06;;;;;;;72.43;16.00;;;8.10;99.90;;;;;;4985377;28;20048;-88
2022/02/10 00:50:33;;;;;;;132.55;15.57;;;8.10;99.90;;;;;;4996119;28;20514;-89
2022/02/10 00:53:09;;;;;;;44.22;11.05;;;8.00;99.90;;;;;;4979544;28;20045;-87
2022/02/10 00:55:38;;;;;;;38.00;10.20;;;8.00;99.90;;;;;;5004073;28;20038;-88
2022/02/10 00:58:07;;;;;;;48.97;10.45;;;8.00;99.90;;;;;;5002348;28;20032;-86
2022/02/10 01:30:32;;;;;;;77.60;11.65;;;7.70;99.90;;;;;;5014326;28;20044;-87
2022/02/10 01:33:02;;;;;;;69.53;11.35;;;7.70;99.90;;;;;;4983945;28;20029;-88
2022/02/10 01:35:28;;;;;;;66.03;11.38;;;7.70;99.90;;;;;;4974119;28;20029;-87
2022/02/10 01:37:54;;;;;;;69.20;10.90;;;7.70;99.90;;;;;;4971159;28;20043;-86
2022/02/10 02:04:22;;;;;;;166.25;21.08;;;7.60;99.90;;;;;;5003308;28;20111;-87
2022/02/10 02:06:50;;;;;;;167.27;22.98;;;7.60;99.90;;;;;;4986233;28;20484;-86
2022/02/10 02:09:18;;;;;;;131.68;24.77;;;7.70;99.90;;;;;;4982774;28;20164;-87
2022/02/10 02:11:46;;;;;;;185.88;28.85;;;7.70;99.90;;;;;;5000128;28;20037;-87
2022/02/10 02:14:14;;;;;;;232.55;31.33;;;7.70;99.90;;;;;;4983034;28;20048;-85
2022/02/10 02:16:45;;;;;;;209.45;29.70;;;7.80;99.90;;;;;;4990471;28;20103;-87
2022/02/10 02:19:12;;;;;;;135.25;27.45;;;7.80;99.90;;;;;;4999396;28;20049;-86
2022/02/10 02:21:41;;;;;;;159.63;29.48;;;7.80;99.90;;;;;;5002219;28;20484;-87
2022/02/10 02:24:09;;;;;;;174.90;30.13;;;7.90;99.90;;;;;;5004573;28;20067;-87
2022/02/10 02:26:35;;;;;;;175.63;31.00;;;7.90;99.90;;;;;;5003435;28;20030;-87
2022/02/10 02:29:05;;;;;;;144.18;29.52;;;7.90;99.90;;;;;;4985325;28;20048;-86
2022/02/10 02:31:39;;;;;;;167.93;30.13;;;7.90;99.90;;;;;;4981063;28;20463;-87
2022/02/10 03:06:28;;;;;;;38.60;7.93;;;7.90;99.90;;;;;;4985497;28;20049;-87
2022/02/10 03:09:00;;;;;;;19.55;5.97;;;7.80;99.90;;;;;;4987871;28;20036;-87
2022/02/10 03:11:26;;;;;;;31.70;6.97;;;7.80;99.90;;;;;;4975483;28;20045;-86
2022/02/10 03:14:00;;;;;;;18.27;5.45;;;7.70;99.90;;;;;;4984588;28;20052;-87
2022/02/10 03:16:54;;;;;;;23.45;5.63;;;7.70;99.90;;;;;;4989464;28;20043;-86
2022/02/10 04:16:37;;;;;;;19.92;4.93;;;7.00;99.90;;;;;;5014477;28;20120;-87
2022/02/10 04:27:11;;;;;;;34.35;7.10;;;7.00;99.90;;;;;;5007276;28;20041;-86
2022/02/10 04:30:45;;;;;;;20.48;6.57;;;7.00;99.90;;;;;;4987419;28;20495;-86
2022/02/10 04:44:04;;;;;;;18.38;6.50;;;6.90;99.90;;;;;;4982433;28;20091;-86
2022/02/10 05:33:58;;;;;;;25.27;9.10;;;6.60;99.90;;;;;;4998916;28;20060;-86
2022/02/10 05:36:28;;;;;;;59.25;11.30;;;6.60;99.90;;;;;;4975953;28;20037;-86
2022/02/10 05:39:06;;;;;;;37.97;10.40;;;6.60;99.90;;;;;;4983312;28;20034;-86
2022/02/10 05:42:14;;;;;;;45.75;11.07;;;6.50;99.90;;;;;;4978529;28;20763;-85
2022/02/10 05:57:44;;;;;;;45.55;11.40;;;6.60;99.90;;;;;;5007841;28;20555;-86
2022/02/10 06:40:33;;;;;;;65.03;13.70;;;6.40;99.90;;;;;;5020952;28;20048;-86
2022/02/10 09:00:37;;;;;;;35.00;13.98;;;6.40;99.90;;;;;;4988997;28;20049;-84
2022/02/10 09:03:19;;;;;;;34.70;12.98;;;6.40;99.90;;;;;;4986003;28;20084;-84
2022/02/10 09:05:57;;;;;;;28.08;12.38;;;6.50;99.90;;;;;;5004692;28;20067;-84
2022/02/10 09:25:32;;;;;;;25.55;9.45;;;6.90;99.90;;;;;;5004706;28;20045;-85
2022/02/10 09:57:35;;;;;;;30.63;8.18;;;6.90;99.90;;;;;;4990663;28;20037;-86
2022/02/10 10:03:16;;;;;;;17.55;6.30;;;7.00;99.90;;;;;;5023382;28;20133;-86
2022/02/10 10:06:01;;;;;;;20.70;6.60;;;7.00;99.90;;;;;;4988033;28;20040;-86
2022/02/10 10:08:50;;;;;;;21.38;7.03;;;7.10;99.90;;;;;;4992911;28;20045;-84
2022/02/10 10:14:14;;;;;;;22.75;7.03;;;7.20;99.90;;;;;;5008659;28;20036;-84
2022/02/10 10:16:51;;;;;;;19.58;5.47;;;7.20;99.90;;;;;;4991374;28;20432;-85
2022/02/10 10:54:18;;;;;;;21.40;3.70;;;7.60;99.90;;;;;;5004336;28;20049;-86
2022/02/10 10:56:56;;;;;;;17.60;3.47;;;7.60;99.90;;;;;;4992715;28;20045;-88
2022/02/10 11:42:10;;;;;;;17.40;2.78;;;8.10;99.90;;;;;;5004765;28;20049;-88
2022/02/10 12:39:00;;;;;;;9.20;1.73;;;8.50;99.90;;;;;;5012411;28;20114;-86
2022/02/10 14:15:38;;;;;;;15.30;3.40;;;7.60;99.90;;;;;;4992612;28;20519;-87
2022/02/10 14:25:55;;;;;;;20.20;2.55;;;7.40;99.90;;;;;;4994259;28;20056;-89
2022/02/10 14:28:21;;;;;;;9.88;2.50;;;7.30;99.90;;;;;;4996616;28;20124;-87
2022/02/10 14:30:50;;;;;;;18.08;3.13;;;7.30;99.90;;;;;;4992244;28;20412;-90
2022/02/10 14:33:23;;;;;;;14.98;3.58;;;7.30;99.90;;;;;;4987387;28;20042;-91
2022/02/10 14:39:13;;;;;;;13.00;2.28;;;7.20;99.90;;;;;;5002741;28;20576;-90
2022/02/10 15:11:36;;;;;;;14.13;3.05;;;7.00;99.90;;;;;;4977422;28;20038;-86
2022/02/10 16:17:27;;;;;;;13.73;3.53;;;5.60;99.90;;;;;;5005619;28;20045;-85
2022/02/10 16:19:54;;;;;;;15.57;3.20;;;5.50;99.90;;;;;;4978067;28;20431;-85
2022/02/10 16:22:26;;;;;;;16.73;3.70;;;5.50;99.90;;;;;;4988894;28;20231;-86
2022/02/10 16:25:00;;;;;;;17.58;3.35;;;5.40;99.90;;;;;;4985885;28;20049;-85
2022/02/10 16:27:28;;;;;;;16.05;3.20;;;5.40;99.90;;;;;;4991727;28;20041;-88
2022/02/10 16:30:00;;;;;;;23.95;3.80;;;5.40;99.90;;;;;;4977743;28;20038;-85
2022/02/10 16:32:27;;;;;;;22.45;3.63;;;5.40;99.90;;;;;;4994902;28;20041;-85
2022/02/10 16:34:55;;;;;;;23.55;3.38;;;5.40;99.90;;;;;;4987076;28;20092;-87
2022/02/10 16:37:22;;;;;;;13.40;2.63;;;5.30;99.90;;;;;;4978692;28;20053;-86
2022/02/10 16:39:48;;;;;;;14.93;2.60;;;5.30;99.90;;;;;;4955935;28;20478;-86
2022/02/10 16:42:16;;;;;;;15.10;2.38;;;5.30;99.90;;;;;;4991669;28;20076;-86
2022/02/10 16:44:47;;;;;;;15.88;2.53;;;5.20;99.90;;;;;;4974837;28;20452;-86
2022/02/10 16:47:14;;;;;;;11.95;2.25;;;5.20;99.90;;;;;;4969554;28;20083;-86
2022/02/10 16:49:47;;;;;;;19.25;4.55;;;5.20;99.90;;;;;;4974357;28;20045;-87
2022/02/10 16:52:31;;;;;;;16.75;4.30;;;5.10;99.90;;;;;;4977329;28;20445;-86
2022/02/10 16:55:10;;;;;;;18.95;3.00;;;5.10;99.90;;;;;;4985667;28;20807;-87
2022/02/10 16:58:27;;;;;;;20.83;3.38;;;5.10;99.90;;;;;;4981399;28;20834;-86
2022/02/10 17:05:51;;;;;;;12.68;2.22;;;5.00;99.90;;;;;;4991381;28;20064;-86
2022/02/10 17:19:30;;;;;;;17.55;1.92;;;4.90;99.90;;;;;;4991830;28;20061;-85
2022/02/10 17:33:10;;;;;;;20.88;2.50;;;4.80;99.90;;;;;;4979211;28;20081;-87
2022/02/10 17:46:13;;;;;;;16.50;2.10;;;4.60;99.90;;;;;;4994468;28;20052;-86
2022/02/10 17:51:45;;;;;;;20.52;2.30;;;4.60;99.90;;;;;;4978579;28;20038;-85
2022/02/10 17:54:12;;;;;;;12.52;1.88;;;4.60;99.90;;;;;;4957997;28;20441;-86
2022/02/10 17:56:39;;;;;;;18.35;2.50;;;4.50;99.90;;;;;;4958219;28;20037;-85
2022/02/10 17:59:05;;;;;;;9.85;2.33;;;4.50;99.90;;;;;;5007501;28;20042;-86
2022/02/10 18:01:32;;;;;;;14.45;2.28;;;4.50;99.90;;;;;;5008040;28;20041;-86
2022/02/10 18:03:58;;;;;;;16.40;2.10;;;4.50;99.90;;;;;;4994372;28;20099;-86
2022/02/10 18:06:31;;;;;;;17.05;2.60;;;4.40;99.90;;;;;;4977283;28;20049;-85
2022/02/10 18:14:47;;;;;;;15.75;2.40;;;4.40;99.90;;;;;;4979986;28;20052;-85
2022/02/10 18:17:22;;;;;;;15.00;2.38;;;4.30;99.90;;;;;;4968427;28;20272;-85
2022/02/10 18:25:23;;;;;;;21.05;2.83;;;4.30;99.90;;;;;;4995212;28;20041;-86
2022/02/10 18:28:05;;;;;;;24.50;3.25;;;4.30;99.90;;;;;;5002825;28;20045;-85
2022/02/10 19:05:58;;;;;;;15.87;3.57;;;4.40;99.90;;;;;;4997596;28;20048;-85
2022/02/10 19:08:42;;;;;;;20.83;4.22;;;4.30;99.90;;;;;;5006856;28;20308;-87
2022/02/10 19:11:09;;;;;;;17.60;3.70;;;4.20;99.90;;;;;;4964435;28;20044;-86
2022/02/10 19:13:35;;;;;;;19.33;2.95;;;4.20;99.90;;;;;;4972832;28;20060;-85
2022/02/10 19:16:01;;;;;;;21.05;3.53;;;4.20;99.90;;;;;;4971600;28;20041;-85
2022/02/10 19:18:27;;;;;;;24.55;3.47;;;4.20;99.90;;;;;;4985245;28;20085;-86
2022/02/10 19:20:52;;;;;;;17.80;3.95;;;4.20;99.90;;;;;;4983999;28;20365;-85
2022/02/10 19:23:18;;;;;;;21.50;3.65;;;4.20;99.90;;;;;;4956036;28;20124;-86
2022/02/10 19:25:46;;;;;;;23.58;3.60;;;4.20;99.90;;;;;;4970304;28;20116;-86
2022/02/10 19:28:11;;;;;;;15.82;3.35;;;4.30;99.90;;;;;;4991390;28;20073;-87
2022/02/10 19:30:39;;;;;;;27.27;3.17;;;4.30;99.90;;;;;;4979262;28;20575;-85
2022/02/10 19:33:11;;;;;;;14.82;3.42;;;4.30;99.90;;;;;;4976084;28;20048;-84
2022/02/10 19:35:44;;;;;;;14.45;2.50;;;4.20;99.90;;;;;;5017915;28;20116;-86
2022/02/10 19:38:14;;;;;;;;;;;4.30;99.90;;;;;;4981461;28;20516;-86
2022/02/10 19:40:44;;;;;;;20.23;3.60;;;4.20;99.90;;;;;;4971500;28;19918;-86
2022/02/10 19:43:11;;;;;;;16.42;2.90;;;4.30;99.90;;;;;;4960292;28;20477;-86
2022/02/10 19:45:37;;;;;;;15.43;2.67;;;4.30;99.90;;;;;;4976719;28;20134;-86
2022/02/10 19:48:03;;;;;;;13.00;2.80;;;4.30;99.90;;;;;;4990832;28;20073;-85
2022/02/10 19:50:30;;;;;;;18.77;3.08;;;4.30;99.90;;;;;;4989255;28;20045;-86
2022/02/10 19:53:00;;;;;;;17.38;2.83;;;4.30;99.90;;;;;;4986389;28;20305;-86
2022/02/10 19:55:27;;;;;;;16.75;2.60;;;4.30;99.90;;;;;;4971624;28;21133;-86
2022/02/10 19:57:58;;;;;;;15.88;2.35;;;4.30;99.90;;;;;;4970850;28;20229;-86
2022/02/10 20:00:31;;;;;;;10.63;2.42;;;4.30;99.90;;;;;;4964056;28;20618;-85
2022/02/10 20:02:57;;;;;;;11.77;2.45;;;4.30;99.90;;;;;;4969836;28;20829;-86
2022/02/10 20:05:25;;;;;;;12.98;2.58;;;4.30;99.90;;;;;;4955174;28;20044;-87
2022/02/10 20:07:55;;;;;;;20.67;2.70;;;4.20;99.90;;;;;;4966154;28;20107;-85
2022/02/10 20:10:22;;;;;;;19.38;2.47;;;4.20;99.90;;;;;;4995914;28;20107;-86
2022/02/10 20:12:49;;;;;;;15.35;2.42;;;4.20;99.90;;;;;;4978089;28;20037;-86
2022/02/10 20:15:15;;;;;;;9.52;1.80;;;4.20;99.90;;;;;;4970285;28;20052;-88
2022/02/10 20:17:45;;;;;;;15.57;2.33;;;4.20;99.90;;;;;;4986731;28;20037;-86
2022/02/10 20:20:11;;;;;;;16.45;3.78;;;4.20;99.90;;;;;;4999738;28;20045;-86
2022/02/10 20:22:38;;;;;;;21.42;2.67;;;4.20;99.90;;;;;;4942977;28;20046;-86
2022/02/10 20:25:08;;;;;;;14.52;2.42;;;4.10;99.90;;;;;;4950449;28;20095;-86
2022/02/10 20:27:35;;;;;;;17.05;2.70;;;4.20;99.90;;;;;;4956161;28;20184;-86
2022/02/10 20:30:03;;;;;;;12.23;2.15;;;4.20;99.90;;;;;;4965029;28;20229;-86
2022/02/10 20:32:29;;;;;;;17.17;2.38;;;4.10;99.90;;;;;;4950543;28;20141;-85
2022/02/10 20:34:55;;;;;;;17.83;2.40;;;4.10;99.90;;;;;;4945943;28;20037;-86
2022/02/10 20:37:23;;;;;;;14.15;2.20;;;4.10;99.90;;;;;;4967423;28;20077;-86
2022/02/10 20:39:49;;;;;;;16.00;2.67;;;4.10;99.90;;;;;;4954099;28;20132;-86
2022/02/10 20:42:18;;;;;;;16.10;2.28;;;4.10;99.90;;;;;;4948465;28;20412;-86
2022/02/10 20:44:47;;;;;;;17.38;2.13;;;4.10;99.90;;;;;;4966364;28;20052;-86
2022/02/10 20:47:17;;;;;;;14.13;2.15;;;4.10;99.90;;;;;;4962301;28;20371;-85
2022/02/10 20:49:44;;;;;;;17.17;2.47;;;4.10;99.90;;;;;;4999551;28;20053;-86
2022/02/10 20:52:10;;;;;;;16.35;2.38;;;4.10;99.90;;;;;;4981499;28;20033;-85
2022/02/10 20:54:36;;;;;;;12.50;1.90;;;4.10;99.90;;;;;;4972779;28;20116;-85
2022/02/10 20:57:03;;;;;;;20.27;2.83;;;4.00;99.90;;;;;;4957359;28;20132;-85
2022/02/10 21:02:08;;;;;;;11.88;2.15;;;4.00;99.90;;;;;;4994845;28;20508;-85
2022/02/10 21:04:38;;;;;;;13.05;2.50;;;4.00;99.90;;;;;;4984319;28;20172;-85
2022/02/10 21:07:31;;;;;;;15.15;2.30;;;4.00;99.90;;;;;;4989495;28;20048;-86
2022/02/10 21:12:19;;;;;;;18.05;2.17;;;3.90;99.90;;;;;;4977381;28;20103;-86
2022/02/10 21:14:45;;;;;;;21.58;2.72;;;3.90;99.90;;;;;;4989582;28;20033;-86
2022/02/10 21:17:14;;;;;;;16.35;2.00;;;3.90;99.90;;;;;;4972306;28;20030;-84
2022/02/10 21:19:42;;;;;;;12.50;1.95;;;3.90;99.90;;;;;;4973278;28;20041;-85
2022/02/10 21:22:12;;;;;;;15.90;1.58;;;3.90;99.90;;;;;;4975255;28;20041;-85
2022/02/10 21:24:43;;;;;;;10.25;1.98;;;3.90;99.90;;;;;;4979314;28;20049;-86
2022/02/10 21:27:29;;;;;;;8.02;2.08;;;3.90;99.90;;;;;;4988860;28;20116;-85
2022/02/10 21:29:59;;;;;;;14.82;1.98;;;3.90;99.90;;;;;;4978120;28;20277;-86
2022/02/10 21:32:27;;;;;;;17.05;2.42;;;3.90;99.90;;;;;;4986745;28;20024;-86
2022/02/10 21:35:11;;;;;;;18.35;3.53;;;3.90;99.90;;;;;;5000114;23;20052;-88
2022/02/10 21:37:45;;;;;;;11.85;1.85;;;3.90;99.90;;;;;;5053900;28;20041;-88
2022/02/10 21:40:26;;;;;;;15.57;2.22;;;3.90;99.90;;;;;;5031145;28;20047;-88
2022/02/10 22:16:21;;;;;;;17.33;2.45;;;3.60;99.90;;;;;;5041289;28;20032;-88
2022/02/10 22:18:28;;;;;;;18.25;2.20;;;3.50;99.90;;;;;;5044354;28;20032;-88
2022/02/10 22:20:44;;;;;;;14.70;2.47;;;3.50;99.90;;;;;;5050338;28;20119;-89
2022/02/10 22:23:19;;;;;;;19.80;2.47;;;3.40;99.90;;;;;;5031291;28;20052;-89
2022/02/10 22:25:46;;;;;;;21.33;2.50;;;3.40;99.90;;;;;;5032579;28;20505;-88
2022/02/10 22:28:27;;;;;;;13.57;2.35;;;3.30;99.90;;;;;;5046103;28;20032;-89
2022/02/10 22:36:22;;;;;;;12.88;2.80;;;3.20;99.90;;;;;;5032177;28;20414;-89
2022/02/10 22:38:53;;;;;;;13.32;2.35;;;3.20;99.90;;;;;;5059986;28;20275;-87
2022/02/10 22:41:20;;;;;;;20.00;3.00;;;3.20;99.90;;;;;;5044387;28;20127;-87
2022/02/10 22:43:49;;;;;;;12.27;2.70;;;3.20;99.90;;;;;;5027755;28;20126;-88
2022/02/10 22:46:16;;;;;;;14.30;2.53;;;3.20;99.90;;;;;;5059989;28;20083;-87
2022/02/10 22:48:44;;;;;;;14.43;3.03;;;3.20;99.90;;;;;;5039701;28;20036;-89
2022/02/10 22:51:15;;;;;;;11.98;2.67;;;3.20;99.90;;;;;;5060821;28;20303;-86
2022/02/10 22:53:41;;;;;;;11.77;2.83;;;3.20;99.90;;;;;;5038192;28;20071;-87
2022/02/10 22:56:09;;;;;;;12.00;3.15;;;3.20;99.90;;;;;;5045740;28;20149;-88
2022/02/10 22:58:38;;;;;;;12.05;3.10;;;3.20;99.90;;;;;;5037625;28;20070;-87
2022/02/10 23:01:04;;;;;;;16.83;3.20;;;3.20;99.90;;;;;;5025018;28;20037;-87
2022/02/10 23:03:32;;;;;;;13.82;3.08;;;3.20;99.90;;;;;;5026667;28;20036;-86
2022/02/10 23:05:58;;;;;;;14.32;3.47;;;3.20;99.90;;;;;;5045249;28;20044;-87
2022/02/10 23:08:25;;;;;;;18.83;3.50;;;3.20;99.90;;;;;;5045365;28;20044;-87
2022/02/10 23:10:52;;;;;;;15.20;3.72;;;3.20;99.90;;;;;;5046222;28;20098;-88
2022/02/10 23:13:27;;;;;;;11.52;3.53;;;3.20;99.90;;;;;;5023195;28;20033;-88
2022/02/10 23:15:57;;;;;;;19.15;3.88;;;3.20;99.90;;;;;;5041626;28;20033;-86
2022/02/10 23:18:26;;;;;;;14.40;3.58;;;3.10;99.90;;;;;;5057945;28;20130;-87
2022/02/10 23:20:53;;;;;;;15.00;4.30;;;3.20;99.90;;;;;;5043263;28;20044;-86
2022/02/10 23:23:21;;;;;;;13.98;3.58;;;3.20;99.90;;;;;;5007677;28;20047;-86
2022/02/10 23:25:49;;;;;;;16.38;4.30;;;3.20;99.90;;;;;;5057796;28;20040;-87
2022/02/10 23:28:23;;;;;;;13.50;3.60;;;3.30;99.90;;;;;;5059366;28;20473;-86
2022/02/10 23:30:49;;;;;;;13.80;3.63;;;3.30;99.90;;;;;;5058294;28;20120;-87
2022/02/10 23:38:39;;;;;;;17.63;3.90;;;3.40;99.90;;;;;;5047508;28;20052;-87
2022/02/10 23:43:31;;;;;;;14.05;3.38;;;3.50;99.90;;;;;;5064806;28;20044;-87
2022/02/10 23:45:57;;;;;;;16.92;3.35;;;3.50;99.90;;;;;;5010978;28;20033;-87
2022/02/10 23:48:25;;;;;;;15.88;3.58;;;3.50;99.90;;;;;;5012211;28;20091;-87
2022/02/10 23:50:51;;;;;;;16.02;3.50;;;3.50;99.90;;;;;;5036464;28;20076;-87
2022/02/10 23:53:17;;;;;;;14.23;3.70;;;3.40;99.90;;;;;;5009959;28;20079;-88
2022/02/10 23:55:43;;;;;;;17.85;4.10;;;3.40;99.90;;;;;;5007685;28;20102;-88
